• Join FlightAware (Why Join?)
  • Login
  • US Flag 
09:36PM EST


 

Airport Tracker/Info


-or-


 

Live Flight TrackerFlight Track Log ✈ SWA3206 ✈ 07-May-2013 ✈ KSAN - KPHX

Flight Track Log - Related Links

Times and Time Zones

All times are in EDT time to prevent confusion due to time zone crossing. See the SWA3206 flight status page for this flight to view local times or setup timezone preferences in your user account.

Time Position Orientation Groundspeed Altitude Reporting Facility
EDT Latitude Longitude Course Direction KTS MPH feet Rate Location/Type
07:19PM 32.7411 -117.2225 284° West 147 169 1,400  Level Los Angeles Center
07:20PM 32.7544 -117.2844 284° West 183 211 3,700 2,040 Climbing Los Angeles Center
07:21PM 32.7108 -117.3283 220° Southwest 221 254 5,700 2,520 Climbing Los Angeles Center
07:22PM 32.6544 -117.2628 136° Southeast 274 315 9,000 2,820 Climbing Los Angeles Center
07:23PM 32.6383 -117.1586 100° East 317 365 11,500 2,700 Climbing Los Angeles Center
07:24PM 32.6197 -117.0372 100° East 360 414 14,600 3,120 Climbing Los Angeles Center
07:25PM 32.6211 -116.8767 89° East 407 468 17,900 2,820 Climbing Los Angeles Center
07:26PM 32.6342 -116.7367 84° East 424 488 20,500 2,280 Climbing Los Angeles Center
07:27PM 32.6492 -116.5875 83° East 455 524 22,700 2,220 Climbing Los Angeles Center
07:28PM 32.6636 -116.4339 84° East 472 543 25,200 2,100 Climbing Los Angeles Center
07:29PM 32.6778 -116.2767 84° East 484 557 27,100 1,920 Climbing Los Angeles Center
07:30PM 32.6972 -116.0783 83° East 506 582 29,200 1,920 Climbing Los Angeles Center
07:31PM 32.7122 -115.9075 84° East 518 596 31,100 1,980 Climbing Los Angeles Center
07:32PM 32.7283 -115.7367 84° East 523 602 33,400 1,800 Climbing Los Angeles Center
07:33PM 32.7436 -115.5703 84° East 515 593 34,900 720 Climbing Los Angeles Center
07:34PM 32.7531 -115.4019 86° East 512 589 34,900  Level Los Angeles Center
07:35PM 32.7581 -115.2303 88° East 518 596 34,900  Level Los Angeles Center
07:36PM 32.7628 -115.0269 88° East 514 592 34,900  Level Los Angeles Center
07:37PM 32.7664 -114.8603 88° East 508 585 34,900 -420 Level Los Angeles Center
07:38PM 32.7700 -114.6908 89° East 514 592 34,100 -1,800 Descending Los Angeles Center
07:39PM 32.7725 -114.5192 89° East 518 596 31,300 -2,640 Descending Los Angeles Center
07:40PM 32.7736 -114.3475 90° East 520 598 28,700 -2,400 Descending Los Angeles Center
07:41PM 32.7761 -114.1794 89° East 509 586 26,400 -2,340 Descending Los Angeles Center
07:42PM 32.7761 -114.0633 90° East 507 583 25,000 -960 Descending Albuquerque Center
07:43PM 32.7839 -113.9044 87° East 489 563 24,900 -60 Descending Albuquerque Center
07:44PM 32.8089 -113.7478 79° East 480 552 24,900  Level Albuquerque Center
07:45PM 32.8719 -113.6131 61° Northeast 468 539 24,900 -300 Level Albuquerque Center
07:46PM 32.9594 -113.4939 49° Northeast 469 540 24,400 -600 Descending Albuquerque Center
07:47PM 33.0253 -113.3606 59° Northeast 469 540 23,700 -1,320 Descending Albuquerque Center
07:48PM 33.0894 -113.2244 61° Northeast 469 540 21,700 -2,040 Descending Albuquerque Center
07:49PM 33.1514 -113.0933 61° Northeast 464 534 19,600 -2,100 Descending Albuquerque Center
07:50PM 33.2108 -112.9664 61° Northeast 448 516 17,400 -1,860 Descending Albuquerque Center
07:51PM 33.2747 -112.8242 62° Northeast 411 473 15,900 -840 Descending Albuquerque Center
07:52PM 33.2819 -112.7069 86° East 367 422 15,700 -840 Descending Albuquerque Center
07:53PM 33.2847 -112.5944 88° East 347 399 14,200 -1,500 Descending Albuquerque Center
07:54PM 33.2875 -112.4858 88° East 341 392 12,700 -1,560 Descending Albuquerque Center
07:55PM 33.2911 -112.3761 88° East 337 388 11,100 -1,200 Descending Albuquerque Center
07:56PM 33.2978 -112.2706 86° East 327 376 10,300 -840 Descending Albuquerque Center
07:57PM 33.3047 -112.1711 85° East 313 360 9,400 -960 Descending Albuquerque Center
07:58PM 33.3175 -112.0644 82° East 286 329 8,400 -1,080 Descending Albuquerque Center
07:59PM 33.3383 -111.9844 73° East 264 304 7,300 -1,140 Descending Albuquerque Center
08:00PM 33.3467 -111.9033 83° East 255 293 6,100 -1,260 Descending Albuquerque Center
08:01PM 33.3553 -111.8264 82° East 259 298 4,800 -1,200 Descending Albuquerque Center
08:02PM 33.4064 -111.8358 351° North 219 252 3,700 -1,020 Descending Albuquerque Center
08:03PM 33.4278 -111.8881 296° West 193 222 2,800 -780 Descending Albuquerque Center
08:05PM 33.4306 -111.9353 274° West 163 188 2,100 -600 Descending Albuquerque Center
08:06PM 33.4303 -111.9842 270° West 147 169 1,600 -540 Descending Albuquerque Center